Time;durP1;ratioP1;P1;durP2;ratioP2;P2;SDS_P1;SDS_P2;PMS_P1;PMS_P2;Temp;Humidity;BMP_temperature;BMP_pressure;BME280_temperature;BME280_humidity;BME280_pressure;Samples;Min_cycle;Max_cycle;Signal;HPM_P1;HPM_P2
2023/10/19 00:02:08;;;;;;;4.63;2.55;;;;;;;12.17;100.00;99274.13;4972830;28;96595;-27
2023/10/19 00:04:35;;;;;;;3.33;2.25;;;;;;;12.19;100.00;99272.13;4972370;28;96640;-27
2023/10/19 00:07:04;;;;;;;3.95;2.20;;;;;;;12.17;100.00;99260.56;4970495;28;101274;-28
2023/10/19 00:09:35;;;;;;;3.63;2.35;;;;;;;12.24;100.00;99264.41;4970858;28;98955;-28
2023/10/19 00:12:02;;;;;;;2.72;1.88;;;;;;;12.25;100.00;99266.97;4971141;28;96719;-27
2023/10/19 00:14:27;;;;;;;3.72;2.22;;;;;;;12.25;100.00;99249.81;4972344;28;96894;-27
2023/10/19 00:16:53;;;;;;;3.42;2.28;;;;;;;12.30;100.00;99261.97;4972098;28;99368;-28
2023/10/19 00:19:19;;;;;;;3.40;2.33;;;;;;;12.35;100.00;99264.25;4970412;28;101066;-27
2023/10/19 00:21:54;;;;;;;3.45;2.17;;;;;;;12.40;100.00;99258.41;4970975;28;96704;-27
2023/10/19 00:24:22;;;;;;;2.72;1.77;;;;;;;12.40;100.00;99269.25;4972940;28;96654;-28
2023/10/19 00:26:48;;;;;;;2.72;2.00;;;;;;;12.41;100.00;99265.53;4970540;28;101063;-28
2023/10/19 00:31:58;;;;;;;2.67;1.85;;;;;;;12.45;100.00;99261.53;4972282;28;96505;-27
2023/10/19 00:34:25;;;;;;;3.55;1.98;;;;;;;12.47;100.00;99264.94;4972154;28;96839;-28
2023/10/19 00:36:51;;;;;;;3.03;2.05;;;;;;;12.51;100.00;99261.81;4970547;28;101421;-29
2023/10/19 00:39:21;;;;;;;3.55;2.20;;;;;;;12.60;100.00;99273.63;4972139;28;97334;-27
2023/10/19 00:41:47;;;;;;;4.00;2.42;;;;;;;12.62;100.00;99268.91;4972525;28;96570;-28
2023/10/19 00:44:16;;;;;;;4.53;2.45;;;;;;;12.68;100.00;99264.75;4973920;28;96869;-27
2023/10/19 00:49:09;;;;;;;4.35;2.22;;;;;;;12.75;100.00;99266.75;4975907;28;97618;-27
2023/10/19 00:51:54;;;;;;;3.90;2.53;;;;;;;12.77;100.00;99266.56;4973942;28;96801;-27
2023/10/19 00:54:33;;;;;;;3.40;2.25;;;;;;;12.79;100.00;99255.56;4973975;28;96730;-28
2023/10/19 00:57:06;;;;;;;6.22;2.13;;;;;;;12.85;100.00;99265.84;4974639;28;100017;-28
2023/10/19 00:59:35;;;;;;;3.95;2.50;;;;;;;12.89;100.00;99272.69;4975369;28;97917;-27
2023/10/19 01:02:16;;;;;;;4.25;2.33;;;;;;;12.97;100.00;99267.38;4973939;28;96679;-27
2023/10/19 01:04:50;;;;;;;1.92;1.52;;;;;;;13.13;100.00;99285.75;4975097;28;96757;-27
2023/10/19 01:09:56;;;;;;;2.10;1.42;;;;;;;13.25;100.00;99273.72;4972950;28;98053;-28
2023/10/19 01:12:25;;;;;;;2.80;1.88;;;;;;;13.28;100.00;99278.03;4973679;28;96758;-28
2023/10/19 01:15:06;;;;;;;2.22;1.42;;;;;;;13.32;100.00;99271.25;4974067;28;96974;-27
2023/10/19 01:17:34;;;;;;;0.98;0.73;;;;;;;13.42;100.00;99285.69;4973292;28;101366;-29
2023/10/19 01:20:01;;;;;;;0.73;0.63;;;;;;;13.43;100.00;99276.50;4973268;28;101152;-27
2023/10/19 01:22:27;;;;;;;1.10;1.00;;;;;;;13.48;100.00;99271.44;4972931;28;97272;-27
2023/10/19 01:24:54;;;;;;;0.77;0.75;;;;;;;13.51;100.00;99273.84;4975127;28;96786;-27
2023/10/19 01:27:20;;;;;;;0.85;0.60;;;;;;;13.56;100.00;99282.44;4973261;28;101555;-27
2023/10/19 01:29:45;;;;;;;1.05;0.70;;;;;;;13.56;100.00;99279.72;4974741;28;98030;-29
2023/10/19 01:32:15;;;;;;;0.93;0.70;;;;;;;13.55;100.00;99277.16;4974631;28;96640;-28
2023/10/19 01:34:40;;;;;;;0.98;0.45;;;;;;;13.52;100.00;99267.44;4973406;28;96921;-27
2023/10/19 01:37:05;;;;;;;0.85;0.60;;;;;;;13.64;100.00;99280.81;4974605;28;97514;-27
2023/10/19 01:39:34;;;;;;;0.98;0.52;;;;;;;13.68;100.00;99279.50;4974862;28;97524;-28
2023/10/19 01:42:00;;;;;;;0.50;0.47;;;;;;;13.71;100.00;99279.19;4973185;28;96719;-27
2023/10/19 01:44:26;;;;;;;0.55;0.50;;;;;;;13.76;100.00;99276.88;4974452;28;96640;-27
2023/10/19 01:46:51;;;;;;;0.80;0.60;;;;;;;13.78;100.00;99272.13;4971691;28;101386;-27
2023/10/19 01:49:25;;;;;;;0.50;0.38;;;;;;;13.70;100.00;99261.16;4974445;28;97851;-27
2023/10/19 01:51:51;;;;;;;0.52;0.30;;;;;;;13.75;100.00;99269.69;4974360;28;96573;-28
2023/10/19 01:54:22;;;;;;;0.30;0.30;;;;;;;13.81;100.00;99269.94;4974390;28;97776;-27
2023/10/19 01:56:50;;;;;;;0.47;0.30;;;;;;;13.79;100.00;99271.13;4972876;28;100881;-28
2023/10/19 01:59:16;;;;;;;0.68;0.35;;;;;;;13.84;100.00;99267.94;4973858;28;99210;-27
2023/10/19 02:01:44;;;;;;;0.32;0.20;;;;;;;13.90;100.00;99278.22;4974114;28;96590;-28
2023/10/19 02:04:13;;;;;;;0.20;0.20;;;;;;;13.89;100.00;99269.16;4974482;28;96816;-27
2023/10/19 02:06:40;;;;;;;0.80;0.20;;;;;;;13.92;100.00;99268.88;4973887;28;99287;-28
2023/10/19 02:11:41;;;;;;;0.38;0.28;;;;;;;13.97;100.00;99266.53;4973586;28;96902;-27
2023/10/19 02:14:14;;;;;;;0.10;0.00;;;;;;;13.98;100.00;99261.94;4973969;28;96853;-27
2023/10/19 02:16:52;;;;;;;0.77;0.30;;;;;;;13.96;100.00;99259.38;4974444;28;97348;-27
2023/10/19 02:19:20;;;;;;;0.77;0.25;;;;;;;13.95;100.00;99254.09;4972469;28;100864;-28
2023/10/19 02:21:48;;;;;;;0.40;0.20;;;;;;;13.89;100.00;99241.94;4972577;28;96653;-27
2023/10/19 02:24:14;;;;;;;0.47;0.30;;;;;;;13.94;100.00;99246.94;4972359;28;96877;-27
2023/10/19 02:26:41;;;;;;;0.10;0.10;;;;;;;13.94;100.00;99247.81;4972274;28;100841;-27
2023/10/19 02:29:12;;;;;;;0.75;0.20;;;;;;;13.98;100.00;99253.78;4972712;28;101127;-28
2023/10/19 02:31:39;;;;;;;0.73;0.20;;;;;;;14.02;100.00;99256.03;4972445;28;96648;-27
2023/10/19 02:34:07;;;;;;;0.17;0.10;;;;;;;14.01;100.00;99250.75;4973746;28;96588;-28
2023/10/19 02:36:33;;;;;;;0.38;0.13;;;;;;;14.05;100.00;99254.03;4971777;28;100820;-32
2023/10/19 02:39:09;;;;;;;0.00;0.00;;;;;;;14.05;100.00;99248.56;4972053;28;100854;-27
2023/10/19 02:41:41;;;;;;;0.10;0.10;;;;;;;14.03;100.00;99249.56;4972358;28;96663;-27
2023/10/19 02:44:23;;;;;;;0.30;0.22;;;;;;;14.01;100.00;99248.00;4972158;28;96972;-27
2023/10/19 02:46:53;;;;;;;;;;;;;;;14.05;100.00;99246.69;4971861;28;100986;-28
2023/10/19 02:49:21;;;;;;;1.00;0.30;;;;;;;14.07;100.00;99246.56;4972159;28;100773;-27
2023/10/19 02:51:48;;;;;;;0.38;0.25;;;;;;;14.04;100.00;99242.28;4973620;28;96773;-28
2023/10/19 02:54:34;;;;;;;0.30;0.28;;;;;;;14.09;100.00;99245.38;4972380;28;96976;-29
2023/10/19 02:57:00;;;;;;;0.10;0.10;;;;;;;14.10;100.00;99248.97;4973477;28;98040;-27
2023/10/19 02:59:28;;;;;;;0.10;0.10;;;;;;;14.07;100.00;99230.22;4973108;28;98869;-27
2023/10/19 03:04:36;;;;;;;0.73;0.30;;;;;;;14.14;100.00;99239.47;4971113;28;96534;-28
2023/10/19 03:07:07;;;;;;;0.17;0.15;;;;;;;14.14;100.00;99244.91;4973306;28;97930;-28
2023/10/19 03:09:36;;;;;;;0.28;0.20;;;;;;;14.06;100.00;99231.22;4973179;28;99905;-28
2023/10/19 03:12:09;;;;;;;2.38;0.35;;;;;;;14.10;100.00;99238.06;4971737;28;96728;-27
2023/10/19 03:14:34;;;;;;;2.42;0.20;;;;;;;14.14;100.00;99236.75;4971879;28;96734;-27
2023/10/19 03:17:00;;;;;;;1.27;0.22;;;;;;;14.07;100.00;99228.34;4973150;28;97536;-28
2023/10/19 03:19:26;;;;;;;0.55;0.20;;;;;;;14.11;100.00;99231.59;4971833;28;100804;-28
2023/10/19 03:21:52;;;;;;;0.28;0.28;;;;;;;14.13;100.00;99245.91;4971715;28;96695;-27
2023/10/19 03:27:16;;;;;;;0.32;0.20;;;;;;;14.07;100.00;99219.31;4972521;28;97153;-27
2023/10/19 03:29:47;;;;;;;1.23;0.10;;;;;;;14.07;100.00;99227.50;4973068;28;97877;-27
2023/10/19 03:32:14;;;;;;;0.20;0.13;;;;;;;13.99;100.00;99220.09;4973044;28;96603;-27
2023/10/19 03:34:43;;;;;;;0.20;0.15;;;;;;;13.98;100.00;99221.97;4971627;28;96889;-27
2023/10/19 03:37:13;;;;;;;0.20;0.15;;;;;;;13.97;100.00;99224.84;4972359;28;100676;-27
2023/10/19 03:39:40;;;;;;;0.40;0.20;;;;;;;13.93;100.00;99220.72;4971309;28;101332;-27
2023/10/19 03:42:06;;;;;;;0.17;0.17;;;;;;;13.91;100.00;99220.03;4971434;28;96662;-27
2023/10/19 03:44:53;;;;;;;1.98;0.30;;;;;;;13.89;100.00;99222.03;4972742;28;96857;-28
2023/10/19 03:47:25;;;;;;;0.38;0.20;;;;;;;13.87;100.00;99215.91;4971690;28;97234;-27
2023/10/19 03:49:50;;;;;;;5.00;0.63;;;;;;;13.80;100.00;99207.53;4971164;28;99045;-28
2023/10/19 03:54:41;;;;;;;0.20;0.20;;;;;;;13.80;100.00;99205.66;4972697;28;96838;-29
2023/10/19 03:57:12;;;;;;;3.80;0.30;;;;;;;13.78;100.00;99204.09;4972524;28;97398;-27
2023/10/19 03:59:41;;;;;;;0.20;0.20;;;;;;;13.82;100.00;99221.81;4971032;28;100592;-27
2023/10/19 04:02:13;;;;;;;0.40;0.30;;;;;;;13.81;100.00;99214.66;4970866;28;98380;-28
2023/10/19 04:04:43;;;;;;;0.43;0.20;;;;;;;13.78;100.00;99215.84;4971114;28;96890;-27
2023/10/19 04:07:22;;;;;;;0.10;0.10;;;;;;;13.80;100.00;99218.41;4972153;28;99300;-28
2023/10/19 04:10:09;;;;;;;0.03;0.00;;;;;;;13.85;100.00;99217.91;4971338;28;101034;-28
2023/10/19 04:12:36;;;;;;;0.40;0.20;;;;;;;13.85;100.00;99226.97;4972116;28;96718;-27
2023/10/19 04:15:13;;;;;;;0.52;0.20;;;;;;;13.86;100.00;99231.38;4972331;28;96783;-27
2023/10/19 04:17:40;;;;;;;2.80;0.50;;;;;;;13.86;100.00;99222.38;4970525;28;99087;-28
2023/10/19 04:22:48;;;;;;;0.95;0.45;;;;;;;13.83;100.00;99219.97;4971970;28;96633;-29
2023/10/19 04:25:15;;;;;;;0.50;0.30;;;;;;;13.85;100.00;99232.41;4972211;28;96831;-28
2023/10/19 04:27:42;;;;;;;1.15;0.35;;;;;;;13.78;100.00;99221.28;4972176;28;97966;-28
2023/10/19 04:30:15;;;;;;;1.00;0.38;;;;;;;13.86;100.00;99222.38;4970669;28;98990;-28
2023/10/19 04:32:45;;;;;;;0.77;0.20;;;;;;;13.84;100.00;99236.13;4972215;28;96689;-28
2023/10/19 04:35:21;;;;;;;0.52;0.20;;;;;;;13.84;100.00;99233.41;4971148;28;96971;-28
2023/10/19 04:37:50;;;;;;;0.77;0.28;;;;;;;13.79;100.00;99228.41;4971655;28;99976;-28
2023/10/19 04:40:15;;;;;;;5.43;0.50;;;;;;;13.82;100.00;99232.69;4971732;28;99388;-28
2023/10/19 04:42:41;;;;;;;1.17;0.20;;;;;;;13.84;100.00;99238.84;4971755;28;96508;-28
2023/10/19 04:45:07;;;;;;;0.22;0.22;;;;;;;13.77;100.00;99221.41;4971596;28;103921;-28
2023/10/19 04:47:36;;;;;;;0.75;0.35;;;;;;;13.82;100.00;99229.97;4970548;28;101141;-28
2023/10/19 04:50:05;;;;;;;1.60;0.70;;;;;;;13.85;100.00;99231.53;4970325;28;100767;-28
2023/10/19 04:52:32;;;;;;;0.20;0.17;;;;;;;13.85;100.00;99229.69;4970396;28;96911;-27
2023/10/19 04:54:58;;;;;;;1.85;0.20;;;;;;;13.85;100.00;99220.63;4970543;28;97273;-27
2023/10/19 04:57:23;;;;;;;0.30;0.20;;;;;;;13.84;100.00;99230.69;4970386;28;101197;-27
2023/10/19 04:59:49;;;;;;;0.22;0.22;;;;;;;13.86;100.00;99233.25;4971913;28;99228;-27
2023/10/19 05:02:15;;;;;;;0.22;0.10;;;;;;;13.79;100.00;99220.25;4970417;28;96775;-27
2023/10/19 05:04:40;;;;;;;0.32;0.20;;;;;;;13.87;100.00;99237.66;4971562;28;96875;-27
2023/10/19 05:07:09;;;;;;;0.22;0.20;;;;;;;13.86;100.00;99236.81;4971170;28;99801;-28
2023/10/19 05:09:38;;;;;;;0.30;0.28;;;;;;;13.89;100.00;99241.94;4970355;28;100758;-27
2023/10/19 05:12:04;;;;;;;1.27;0.38;;;;;;;13.91;100.00;99244.53;4971639;28;96491;-28
2023/10/19 05:14:30;;;;;;;0.82;0.40;;;;;;;13.91;100.00;99247.25;4970421;28;97014;-27
2023/10/19 05:16:55;;;;;;;0.95;0.20;;;;;;;13.94;100.00;99241.47;4971463;28;99401;-28
2023/10/19 05:19:21;;;;;;;2.05;0.28;;;;;;;13.93;100.00;99245.22;4971507;28;98041;-28
2023/10/19 05:21:46;;;;;;;0.40;0.30;;;;;;;13.94;100.00;99249.66;4971743;28;96702;-28
2023/10/19 05:24:11;;;;;;;3.83;0.52;;;;;;;13.91;100.00;99236.34;4972068;28;96849;-28
2023/10/19 05:26:37;;;;;;;2.00;0.30;;;;;;;13.93;100.00;99242.50;4971904;28;97709;-28
2023/10/19 05:29:02;;;;;;;0.82;0.50;;;;;;;13.90;100.00;99235.50;4973772;28;97848;-27
2023/10/19 05:31:28;;;;;;;0.25;0.15;;;;;;;13.92;100.00;99233.50;4973029;28;96742;-27
2023/10/19 05:33:54;;;;;;;0.98;0.30;;;;;;;13.96;100.00;99237.59;4974607;28;96844;-27
2023/10/19 05:36:19;;;;;;;1.60;0.60;;;;;;;13.96;100.00;99245.75;4973237;28;101214;-27
2023/10/19 05:38:45;;;;;;;1.20;0.30;;;;;;;13.94;100.00;99234.19;4974674;28;101377;-28
2023/10/19 05:41:11;;;;;;;1.23;0.45;;;;;;;13.99;100.00;99236.41;4973333;28;96826;-28
2023/10/19 05:43:37;;;;;;;1.02;0.45;;;;;;;13.97;100.00;99247.50;4974476;28;96808;-27
2023/10/19 05:46:03;;;;;;;2.05;0.40;;;;;;;13.91;100.00;99228.19;4972534;28;100935;-29
2023/10/19 05:48:28;;;;;;;2.05;0.60;;;;;;;13.99;100.00;99250.91;4974696;28;98252;-28
2023/10/19 05:50:54;;;;;;;0.38;0.20;;;;;;;13.97;100.00;99236.59;4973241;28;96624;-28
2023/10/19 05:53:22;;;;;;;0.73;0.40;;;;;;;13.99;100.00;99233.69;4973041;28;97800;-29
2023/10/19 05:55:47;;;;;;;2.20;0.50;;;;;;;13.98;100.00;99238.28;4971387;28;100791;-28
2023/10/19 05:58:13;;;;;;;2.08;0.35;;;;;;;13.97;100.00;99228.44;4974480;28;97078;-27
2023/10/19 06:00:38;;;;;;;1.52;0.45;;;;;;;13.98;100.00;99230.13;4974350;28;96623;-27
2023/10/19 06:03:04;;;;;;;2.65;0.60;;;;;;;14.02;100.00;99236.13;4974129;28;96857;-27
2023/10/19 06:05:30;;;;;;;0.80;0.40;;;;;;;14.03;100.00;99252.28;4974371;28;97902;-27
2023/10/19 06:07:56;;;;;;;0.57;0.30;;;;;;;14.04;100.00;99247.72;4973029;28;99509;-34
2023/10/19 06:10:22;;;;;;;0.32;0.25;;;;;;;14.07;100.00;99249.28;4972160;28;97115;-28
2023/10/19 06:12:52;;;;;;;0.70;0.30;;;;;;;14.08;100.00;99254.53;4970719;28;97152;-34
2023/10/19 06:15:23;;;;;;;3.55;0.43;;;;;;;14.08;100.00;99259.16;4970278;28;101448;-28
2023/10/19 06:17:49;;;;;;;0.15;0.15;;;;;;;14.08;100.00;99259.16;4971628;28;99172;-29
2023/10/19 06:20:24;;;;;;;2.13;0.73;;;;;;;14.10;100.00;99257.13;4969760;28;97338;-28
2023/10/19 06:23:03;;;;;;;1.13;0.60;;;;;;;14.05;100.00;99259.47;4970645;28;96992;-28
2023/10/19 06:25:30;;;;;;;2.90;0.43;;;;;;;14.12;100.00;99266.00;4972493;28;100925;-28
2023/10/19 06:27:57;;;;;;;0.22;0.17;;;;;;;14.10;100.00;99257.97;4973987;28;97244;-27
2023/10/19 06:30:23;;;;;;;3.40;0.57;;;;;;;14.10;100.00;99259.84;4972369;28;96556;-28
2023/10/19 06:32:53;;;;;;;0.47;0.40;;;;;;;14.14;100.00;99270.28;4972349;28;96929;-28
2023/10/19 06:35:20;;;;;;;0.60;0.28;;;;;;;14.14;100.00;99269.41;4973566;28;99611;-28
2023/10/19 06:37:45;;;;;;;2.15;0.60;;;;;;;14.16;100.00;99279.16;4972489;28;101397;-29
2023/10/19 06:40:14;;;;;;;0.77;0.30;;;;;;;14.19;100.00;99267.94;4972934;28;96770;-27
2023/10/19 06:42:41;;;;;;;1.35;0.40;;;;;;;14.20;100.00;99276.94;4973544;28;96870;-27
2023/10/19 06:45:07;;;;;;;1.45;0.50;;;;;;;14.19;100.00;99275.25;4971388;28;101045;-28
2023/10/19 06:47:37;;;;;;;1.05;0.50;;;;;;;14.18;100.00;99268.06;4972114;28;100926;-27
2023/10/19 06:50:08;;;;;;;0.15;0.15;;;;;;;14.22;100.00;99274.94;4971761;28;96603;-28
2023/10/19 06:52:35;;;;;;;0.95;0.25;;;;;;;14.18;100.00;99265.34;4971878;28;96562;-27
2023/10/19 06:55:03;;;;;;;4.22;0.80;;;;;;;14.21;100.00;99268.63;4971705;28;101090;-28
2023/10/19 06:57:28;;;;;;;0.50;0.30;;;;;;;14.26;100.00;99278.22;4971894;28;100862;-27
2023/10/19 06:59:53;;;;;;;5.43;0.70;;;;;;;14.25;100.00;99271.88;4973594;28;96513;-28
2023/10/19 07:02:20;;;;;;;2.22;0.32;;;;;;;14.26;100.00;99270.88;4973889;28;96752;-28
2023/10/19 07:04:47;;;;;;;0.38;0.35;;;;;;;14.31;100.00;99282.16;4971890;28;100881;-28
2023/10/19 07:07:13;;;;;;;1.95;0.57;;;;;;;14.28;100.00;99282.47;4971714;28;101053;-27
2023/10/19 07:09:39;;;;;;;1.05;0.43;;;;;;;14.33;100.00;99290.19;4971355;28;97338;-27
2023/10/19 07:12:04;;;;;;;0.90;0.52;;;;;;;14.28;100.00;99276.16;4973075;28;96905;-27
2023/10/19 07:14:32;;;;;;;0.35;0.30;;;;;;;14.30;100.00;99288.63;4973206;28;97865;-27
2023/10/19 07:16:58;;;;;;;1.65;0.68;;;;;;;14.34;100.00;99291.88;4971614;28;101175;-27
2023/10/19 07:19:23;;;;;;;0.95;0.30;;;;;;;14.33;100.00;99288.31;4973220;28;97360;-28
2023/10/19 07:21:49;;;;;;;1.60;1.02;;;;;;;14.37;100.00;99291.56;4973032;28;96859;-28
2023/10/19 07:24:18;;;;;;;0.50;0.40;;;;;;;14.39;100.00;99293.13;4972530;28;99512;-28
2023/10/19 07:26:53;;;;;;;2.45;0.90;;;;;;;14.37;100.00;99288.84;4973225;28;97862;-27
2023/10/19 07:29:19;;;;;;;3.30;0.40;;;;;;;14.40;100.00;99291.25;4972949;28;96589;-27
2023/10/19 07:31:45;;;;;;;2.40;0.47;;;;;;;14.40;100.00;99288.53;4971511;28;97016;-28
2023/10/19 07:34:14;;;;;;;0.80;0.50;;;;;;;14.37;100.00;99289.72;4972173;28;99651;-27
2023/10/19 07:36:42;;;;;;;1.30;0.88;;;;;;;14.39;100.00;99289.53;4972380;28;99201;-27
2023/10/19 07:39:13;;;;;;;0.88;0.40;;;;;;;14.45;100.00;99294.38;4971533;28;96755;-27
2023/10/19 07:41:40;;;;;;;1.92;0.50;;;;;;;14.42;100.00;99290.09;4971181;28;96805;-28
2023/10/19 07:44:05;;;;;;;4.05;0.68;;;;;;;14.38;100.00;99288.69;4970957;28;101323;-27
2023/10/19 07:46:31;;;;;;;2.85;0.80;;;;;;;14.43;100.00;99305.41;4972275;28;97604;-29
2023/10/19 07:48:59;;;;;;;0.88;0.60;;;;;;;14.43;100.00;99302.69;4972621;28;96841;-28
2023/10/19 07:51:24;;;;;;;2.30;0.55;;;;;;;14.44;100.00;99301.69;4970531;28;97161;-27
2023/10/19 07:53:51;;;;;;;2.08;0.90;;;;;;;14.42;100.00;99300.16;4971906;28;99500;-27
2023/10/19 07:56:17;;;;;;;3.17;0.70;;;;;;;14.45;100.00;99297.09;4970666;28;101252;-28
2023/10/19 07:58:42;;;;;;;0.65;0.40;;;;;;;14.48;100.00;99295.91;4971810;28;96683;-29
2023/10/19 08:01:07;;;;;;;1.38;0.73;;;;;;;14.49;100.00;99301.22;4971990;28;96837;-28
2023/10/19 08:03:33;;;;;;;2.53;0.70;;;;;;;14.49;100.00;99289.44;4970292;28;97887;-28
2023/10/19 08:05:58;;;;;;;0.40;0.38;;;;;;;14.54;100.00;99292.56;4970029;28;98484;-31
2023/10/19 08:08:24;;;;;;;5.40;0.95;;;;;;;14.51;100.00;99298.31;4970114;28;97727;-28
2023/10/19 08:10:50;;;;;;;1.45;0.55;;;;;;;14.55;100.00;99292.44;4970086;28;97750;-30
2023/10/19 08:13:15;;;;;;;1.75;0.55;;;;;;;14.53;100.00;99279.94;4972327;28;98058;-28
2023/10/19 08:15:40;;;;;;;2.13;0.52;;;;;;;14.59;100.00;99282.09;4990304;28;97340;-30
2023/10/19 08:18:06;;;;;;;2.05;0.77;;;;;;;14.60;100.00;99278.34;4991351;28;96908;-28
2023/10/19 08:20:31;;;;;;;1.58;0.70;;;;;;;14.63;100.00;99270.72;4984751;28;96849;-27
2023/10/19 08:22:58;;;;;;;4.28;0.70;;;;;;;14.70;100.00;99279.06;4971722;28;99589;-28
2023/10/19 08:25:26;;;;;;;1.13;0.55;;;;;;;14.74;100.00;99276.91;4973777;28;100973;-27
2023/10/19 08:27:56;;;;;;;1.10;0.50;;;;;;;14.82;100.00;99279.66;4970865;28;96932;-29
2023/10/19 08:30:22;;;;;;;3.17;0.82;;;;;;;14.88;100.00;99267.28;4970821;28;97525;-27
2023/10/19 08:32:48;;;;;;;2.47;0.68;;;;;;;15.02;100.00;99269.41;4971637;28;98160;-32
2023/10/19 08:35:24;;;;;;;4.78;1.02;;;;;;;15.17;100.00;99275.94;4968746;28;101166;-29
2023/10/19 08:37:49;;;;;;;1.98;0.75;;;;;;;15.31;100.00;99276.38;4972059;28;96487;-29
2023/10/19 08:40:16;;;;;;;2.17;0.80;;;;;;;15.36;100.00;99265.81;4978178;28;96806;-29
2023/10/19 08:42:42;;;;;;;1.08;0.60;;;;;;;15.45;100.00;99271.13;4990330;28;100805;-30
2023/10/19 08:45:09;;;;;;;0.65;0.50;;;;;;;15.56;100.00;99275.44;4990197;28;101476;-29
2023/10/19 08:47:40;;;;;;;1.85;1.17;;;;;;;15.58;100.00;99267.94;4990810;28;96711;-30
2023/10/19 08:50:07;;;;;;;5.68;0.65;;;;;;;15.65;100.00;99274.44;4991746;28;96775;-29
2023/10/19 08:52:35;;;;;;;0.98;0.52;;;;;;;15.64;100.00;99271.88;4986113;28;100959;-29
2023/10/19 08:55:00;;;;;;;1.20;0.47;;;;;;;15.77;100.00;99274.16;4970441;28;99455;-29
2023/10/19 08:57:26;;;;;;;3.05;0.73;;;;;;;15.81;100.00;99259.16;4971988;28;96532;-29
2023/10/19 08:59:52;;;;;;;4.40;1.00;;;;;;;15.95;100.00;99274.06;4972225;28;96856;-35
2023/10/19 09:02:18;;;;;;;1.77;0.98;;;;;;;15.95;100.00;99266.72;4971734;28;98005;-29
2023/10/19 09:04:43;;;;;;;3.28;0.82;;;;;;;15.91;100.00;99259.84;4984576;28;97871;-29
2023/10/19 09:07:10;;;;;;;3.08;1.13;;;;;;;16.00;100.00;99258.84;4973798;28;96668;-29
2023/10/19 09:09:39;;;;;;;1.80;0.70;;;;;;;15.98;100.00;99251.84;4957806;28;96967;-31
2023/10/19 09:12:09;;;;;;;1.20;0.73;;;;;;;16.02;100.00;99262.28;4990164;28;97633;-29
2023/10/19 09:14:36;;;;;;;3.00;0.98;;;;;;;16.00;100.00;99258.84;4993449;28;100155;-29
2023/10/19 09:17:03;;;;;;;4.93;0.98;;;;;;;16.01;100.00;99244.16;4978473;28;96835;-29
2023/10/19 09:19:43;;;;;;;2.45;0.98;;;;;;;16.14;100.00;99251.88;4973752;28;96845;-29
2023/10/19 09:22:18;;;;;;;3.90;0.82;;;;;;;16.14;100.00;99260.91;4955133;28;99499;-29
2023/10/19 09:24:45;;;;;;;3.35;0.77;;;;;;;16.14;100.00;99243.69;4986851;28;101050;-29
2023/10/19 09:27:12;;;;;;;2.55;0.60;;;;;;;16.17;100.00;99240.59;4986786;28;96699;-29
2023/10/19 09:29:37;;;;;;;2.08;0.82;;;;;;;16.16;100.00;99235.28;4954402;28;96797;-29
2023/10/19 09:32:05;;;;;;;1.70;0.70;;;;;;;16.21;100.00;99244.72;4955317;28;98131;-30
2023/10/19 09:34:33;;;;;;;4.00;1.02;;;;;;;16.41;100.00;99234.28;4987401;28;100769;-29
2023/10/19 09:37:03;;;;;;;3.95;1.00;;;;;;;16.59;99.78;99231.38;4972890;28;97771;-30
2023/10/19 09:39:35;;;;;;;5.50;1.00;;;;;;;16.56;99.33;99232.56;4973140;28;96859;-29
2023/10/19 09:42:10;;;;;;;;;;;;;;;16.60;99.57;99232.22;4974659;28;99763;-29
2023/10/19 09:44:41;;;;;;;1.33;1.02;;;;;;;16.69;99.37;99222.97;4972917;28;100868;-29
2023/10/19 09:47:12;;;;;;;3.92;1.23;;;;;;;16.84;98.67;99226.72;4972958;28;96870;-29
2023/10/19 09:49:40;;;;;;;3.20;1.03;;;;;;;16.94;97.81;99230.09;4974506;28;96587;-29
2023/10/19 09:52:07;;;;;;;2.33;1.00;;;;;;;16.93;97.65;99228.41;4972558;28;101224;-29
2023/10/19 09:54:50;;;;;;;1.38;0.77;;;;;;;16.96;97.44;99228.03;4953647;28;101304;-29
2023/10/19 09:57:23;;;;;;;5.03;0.88;;;;;;;17.08;97.58;99228.53;4955286;28;96574;-29
2023/10/19 09:59:56;;;;;;;1.58;0.88;;;;;;;17.09;96.87;99227.50;4956245;28;96791;-29
2023/10/19 10:02:22;;;;;;;3.28;1.02;;;;;;;17.02;96.72;99222.91;4973487;28;99397;-29
2023/10/19 10:04:48;;;;;;;1.17;0.65;;;;;;;16.99;97.13;99229.56;4974435;28;97473;-29
2023/10/19 10:07:15;;;;;;;0.98;0.55;;;;;;;16.95;97.26;99220.03;4974600;28;96521;-29
2023/10/19 10:09:45;;;;;;;4.60;1.20;;;;;;;17.08;96.88;99214.00;4972847;28;96839;-29
2023/10/19 10:12:19;;;;;;;1.30;0.52;;;;;;;17.14;96.25;99208.69;4972754;28;101584;-30
2023/10/19 10:15:07;;;;;;;1.30;0.77;;;;;;;17.31;95.31;99216.81;4972426;28;97248;-29
2023/10/19 10:17:34;;;;;;;4.28;0.80;;;;;;;17.33;94.73;99212.03;4970422;28;96716;-30
2023/10/19 10:20:11;;;;;;;4.78;0.68;;;;;;;17.32;94.86;99208.41;4970444;28;97103;-28
2023/10/19 10:22:37;;;;;;;6.10;1.05;;;;;;;17.34;94.77;99210.97;4971398;28;98202;-27
2023/10/19 10:25:02;;;;;;;2.45;0.90;;;;;;;17.45;94.23;99217.91;4971587;28;97611;-28
2023/10/19 10:27:30;;;;;;;2.05;0.57;;;;;;;17.50;93.98;99221.84;4970789;28;97341;-30
2023/10/19 10:30:05;;;;;;;1.00;0.50;;;;;;;17.47;93.82;99214.00;4970348;28;97566;-28
2023/10/19 10:32:42;;;;;;;2.15;0.63;;;;;;;17.56;94.16;99209.31;4971549;28;98977;-28
2023/10/19 10:35:08;;;;;;;0.88;0.38;;;;;;;17.61;93.54;99218.72;4972240;28;101161;-27
2023/10/19 10:37:37;;;;;;;3.03;0.77;;;;;;;17.47;93.62;99216.75;4973815;28;96527;-27
2023/10/19 10:40:05;;;;;;;1.23;0.52;;;;;;;17.30;93.58;99199.50;4972128;28;96700;-27
2023/10/19 10:42:31;;;;;;;2.33;0.65;;;;;;;17.34;94.45;99217.28;4972031;28;101645;-27
2023/10/19 10:44:56;;;;;;;1.35;0.85;;;;;;;17.29;94.25;99216.13;4973784;28;97869;-28
2023/10/19 10:47:24;;;;;;;2.20;0.75;;;;;;;17.26;94.47;99220.09;4973813;28;96808;-28
2023/10/19 10:49:55;;;;;;;5.05;0.70;;;;;;;17.26;94.70;99224.72;4973602;28;96654;-27
2023/10/19 10:52:32;;;;;;;2.63;0.63;;;;;;;17.22;94.48;99218.72;4971305;28;100705;-27
2023/10/19 10:55:12;;;;;;;2.63;0.75;;;;;;;17.23;95.08;99219.56;4971982;28;100902;-27
2023/10/19 10:57:38;;;;;;;1.73;0.68;;;;;;;17.20;94.72;99220.78;4973802;28;96596;-27
2023/10/19 11:00:22;;;;;;;4.28;0.82;;;;;;;17.23;95.35;99214.09;4972073;28;96918;-27
2023/10/19 11:03:00;;;;;;;4.10;0.73;;;;;;;17.27;94.99;99224.50;4973209;28;99744;-28
2023/10/19 11:05:25;;;;;;;4.00;0.93;;;;;;;17.27;95.24;99216.31;4971853;28;101049;-27
2023/10/19 11:08:14;;;;;;;3.25;0.80;;;;;;;17.34;95.04;99210.97;4973727;28;96597;-27
2023/10/19 11:10:42;;;;;;;1.63;0.52;;;;;;;17.29;94.85;99203.31;4987963;28;96681;-27
2023/10/19 11:13:10;;;;;;;3.45;0.75;;;;;;;17.25;95.01;99196.47;4971699;28;100786;-27
2023/10/19 11:15:37;;;;;;;2.72;0.90;;;;;;;17.29;95.41;99205.19;4971524;28;100801;-28
2023/10/19 11:18:03;;;;;;;0.50;0.28;;;;;;;17.23;95.15;99190.31;4971273;28;97362;-28
2023/10/19 11:20:29;;;;;;;3.50;0.52;;;;;;;17.28;95.04;99187.94;4971567;28;96821;-27
2023/10/19 11:22:56;;;;;;;4.32;0.73;;;;;;;17.29;94.86;99184.16;4973083;28;97854;-27
2023/10/19 11:25:26;;;;;;;5.28;0.82;;;;;;;17.25;94.85;99165.53;4971136;28;100969;-27
2023/10/19 11:27:52;;;;;;;3.70;0.98;;;;;;;17.35;94.89;99175.22;4971650;28;96598;-27
2023/10/19 11:30:25;;;;;;;5.32;0.90;;;;;;;17.39;94.32;99167.50;4973198;28;96729;-27
2023/10/19 11:32:56;;;;;;;9.38;0.95;;;;;;;17.41;94.20;99174.50;4972701;28;99053;-27
2023/10/19 11:35:23;;;;;;;1.88;0.60;;;;;;;17.42;94.07;99178.06;4971713;28;101040;-27
2023/10/19 11:37:50;;;;;;;2.50;0.95;;;;;;;17.43;94.45;99173.47;4971249;28;96618;-27
2023/10/19 11:40:16;;;;;;;5.65;1.58;;;;;;;17.44;94.59;99169.69;4971545;28;96773;-27
2023/10/19 11:42:42;;;;;;;1.33;0.47;;;;;;;17.45;94.04;99177.75;4970594;28;101202;-27
2023/10/19 11:45:08;;;;;;;7.57;0.80;;;;;;;17.44;94.16;99167.81;4971052;28;100694;-27
2023/10/19 11:47:34;;;;;;;3.13;0.85;;;;;;;17.41;93.87;99162.69;4972628;28;96464;-27
2023/10/19 11:50:00;;;;;;;5.95;0.68;;;;;;;17.40;94.57;99166.47;4971283;28;96872;-27
2023/10/19 11:52:25;;;;;;;2.60;0.88;;;;;;;17.37;94.07;99161.34;4972464;28;97953;-28